sensor_id;sensor_type;location;lat;lon;timestamp;temperature;humidity
24254;DHT22;12381;51.152;4.172;2022-09-13T00:00:50;20.70;99.90
24254;DHT22;12381;51.152;4.172;2022-09-13T00:03:17;20.60;99.90
24254;DHT22;12381;51.152;4.172;2022-09-13T00:05:42;20.70;99.90
24254;DHT22;12381;51.152;4.172;2022-09-13T00:08:08;20.60;99.90
24254;DHT22;12381;51.152;4.172;2022-09-13T00:10:37;20.60;99.90
24254;DHT22;12381;51.152;4.172;2022-09-13T00:13:06;20.60;99.90
24254;DHT22;12381;51.152;4.172;2022-09-13T00:15:32;20.70;99.90
24254;DHT22;12381;51.152;4.172;2022-09-13T00:17:58;20.70;99.90
24254;DHT22;12381;51.152;4.172;2022-09-13T00:20:24;20.80;99.90
24254;DHT22;12381;51.152;4.172;2022-09-13T00:22:49;20.80;99.90
24254;DHT22;12381;51.152;4.172;2022-09-13T00:25:16;20.70;99.90
24254;DHT22;12381;51.152;4.172;2022-09-13T00:27:42;20.70;99.90
24254;DHT22;12381;51.152;4.172;2022-09-13T00:30:09;20.70;99.90
24254;DHT22;12381;51.152;4.172;2022-09-13T00:32:35;20.80;99.90
24254;DHT22;12381;51.152;4.172;2022-09-13T00:37:34;20.70;99.90
24254;DHT22;12381;51.152;4.172;2022-09-13T00:40:00;20.70;99.90
24254;DHT22;12381;51.152;4.172;2022-09-13T00:42:28;20.70;99.90
24254;DHT22;12381;51.152;4.172;2022-09-13T00:55:47;20.80;99.90
24254;DHT22;12381;51.152;4.172;2022-09-13T01:00:50;20.80;99.90
24254;DHT22;12381;51.152;4.172;2022-09-13T01:03:18;20.70;99.90
24254;DHT22;12381;51.152;4.172;2022-09-13T01:05:52;20.70;99.90
24254;DHT22;12381;51.152;4.172;2022-09-13T01:08:19;20.70;99.90
24254;DHT22;12381;51.152;4.172;2022-09-13T01:10:49;20.60;99.90
24254;DHT22;12381;51.152;4.172;2022-09-13T01:13:20;20.60;99.90
24254;DHT22;12381;51.152;4.172;2022-09-13T01:15:47;20.60;99.90
24254;DHT22;12381;51.152;4.172;2022-09-13T01:18:13;20.60;99.90
24254;DHT22;12381;51.152;4.172;2022-09-13T01:37:36;20.50;99.90
24254;DHT22;12381;51.152;4.172;2022-09-13T01:42:47;20.50;99.90
24254;DHT22;12381;51.152;4.172;2022-09-13T01:53:19;20.50;99.90
24254;DHT22;12381;51.152;4.172;2022-09-13T01:58:55;20.40;99.90
24254;DHT22;12381;51.152;4.172;2022-09-13T02:01:30;20.40;99.90
24254;DHT22;12381;51.152;4.172;2022-09-13T02:04:21;20.40;99.90
24254;DHT22;12381;51.152;4.172;2022-09-13T02:07:13;20.40;99.90
24254;DHT22;12381;51.152;4.172;2022-09-13T02:09:45;20.40;99.90
24254;DHT22;12381;51.152;4.172;2022-09-13T02:12:18;20.40;99.90
24254;DHT22;12381;51.152;4.172;2022-09-13T02:14:50;20.30;99.90
24254;DHT22;12381;51.152;4.172;2022-09-13T02:17:22;20.30;99.90
24254;DHT22;12381;51.152;4.172;2022-09-13T02:19:57;20.30;99.90
24254;DHT22;12381;51.152;4.172;2022-09-13T02:22:31;20.20;99.90
24254;DHT22;12381;51.152;4.172;2022-09-13T02:25:01;20.20;99.90
24254;DHT22;12381;51.152;4.172;2022-09-13T02:27:32;20.20;99.90
24254;DHT22;12381;51.152;4.172;2022-09-13T02:30:05;20.20;99.90
24254;DHT22;12381;51.152;4.172;2022-09-13T02:32:41;20.20;99.90
24254;DHT22;12381;51.152;4.172;2022-09-13T02:35:32;20.20;99.90
24254;DHT22;12381;51.152;4.172;2022-09-13T02:38:09;20.20;99.90
24254;DHT22;12381;51.152;4.172;2022-09-13T02:40:51;20.20;99.90
24254;DHT22;12381;51.152;4.172;2022-09-13T02:43:45;20.20;99.90
24254;DHT22;12381;51.152;4.172;2022-09-13T02:48:51;20.20;99.90
24254;DHT22;12381;51.152;4.172;2022-09-13T02:54:24;20.30;99.90
24254;DHT22;12381;51.152;4.172;2022-09-13T02:57:00;20.30;99.90
24254;DHT22;12381;51.152;4.172;2022-09-13T02:59:29;20.30;99.90
24254;DHT22;12381;51.152;4.172;2022-09-13T03:02:05;20.40;99.90
24254;DHT22;12381;51.152;4.172;2022-09-13T03:04:35;20.40;99.90
24254;DHT22;12381;51.152;4.172;2022-09-13T03:07:01;20.40;99.90
24254;DHT22;12381;51.152;4.172;2022-09-13T03:09:31;20.40;99.90
24254;DHT22;12381;51.152;4.172;2022-09-13T03:23:46;20.50;99.90
24254;DHT22;12381;51.152;4.172;2022-09-13T03:26:23;20.50;99.90
24254;DHT22;12381;51.152;4.172;2022-09-13T03:37:31;20.30;99.90
24254;DHT22;12381;51.152;4.172;2022-09-13T03:40:11;20.30;99.90
24254;DHT22;12381;51.152;4.172;2022-09-13T03:42:45;20.30;99.90
24254;DHT22;12381;51.152;4.172;2022-09-13T03:45:14;20.30;99.90
24254;DHT22;12381;51.152;4.172;2022-09-13T03:47:42;20.30;99.90
24254;DHT22;12381;51.152;4.172;2022-09-13T03:50:15;20.30;99.90
24254;DHT22;12381;51.152;4.172;2022-09-13T03:52:43;20.30;99.90
24254;DHT22;12381;51.152;4.172;2022-09-13T03:55:09;20.30;99.90
24254;DHT22;12381;51.152;4.172;2022-09-13T03:57:36;20.20;99.90
24254;DHT22;12381;51.152;4.172;2022-09-13T04:00:02;20.20;99.90
24254;DHT22;12381;51.152;4.172;2022-09-13T04:02:28;20.20;99.90
24254;DHT22;12381;51.152;4.172;2022-09-13T04:04:54;20.20;99.90
24254;DHT22;12381;51.152;4.172;2022-09-13T04:07:22;20.10;99.90
24254;DHT22;12381;51.152;4.172;2022-09-13T04:09:48;20.10;99.90
24254;DHT22;12381;51.152;4.172;2022-09-13T04:12:15;20.10;99.90
24254;DHT22;12381;51.152;4.172;2022-09-13T04:14:42;20.20;99.90
24254;DHT22;12381;51.152;4.172;2022-09-13T04:17:11;20.20;99.90
24254;DHT22;12381;51.152;4.172;2022-09-13T04:19:38;20.10;99.90
24254;DHT22;12381;51.152;4.172;2022-09-13T04:22:07;20.20;99.90
24254;DHT22;12381;51.152;4.172;2022-09-13T04:24:33;20.10;99.90
24254;DHT22;12381;51.152;4.172;2022-09-13T04:27:01;20.20;99.90
24254;DHT22;12381;51.152;4.172;2022-09-13T04:29:27;20.10;99.90
24254;DHT22;12381;51.152;4.172;2022-09-13T04:31:54;20.20;99.90
24254;DHT22;12381;51.152;4.172;2022-09-13T04:34:20;20.20;99.90
24254;DHT22;12381;51.152;4.172;2022-09-13T04:36:50;20.20;99.90
24254;DHT22;12381;51.152;4.172;2022-09-13T04:39:16;20.10;99.90
24254;DHT22;12381;51.152;4.172;2022-09-13T04:41:43;20.10;99.90
24254;DHT22;12381;51.152;4.172;2022-09-13T04:44:14;20.10;99.90
24254;DHT22;12381;51.152;4.172;2022-09-13T04:46:40;20.10;99.90
24254;DHT22;12381;51.152;4.172;2022-09-13T04:49:08;20.00;99.90
24254;DHT22;12381;51.152;4.172;2022-09-13T04:51:33;20.00;99.90
24254;DHT22;12381;51.152;4.172;2022-09-13T04:53:59;20.00;99.90
24254;DHT22;12381;51.152;4.172;2022-09-13T04:56:25;20.00;99.90
24254;DHT22;12381;51.152;4.172;2022-09-13T04:58:51;20.10;99.90
24254;DHT22;12381;51.152;4.172;2022-09-13T05:01:17;20.10;99.90
24254;DHT22;12381;51.152;4.172;2022-09-13T05:03:43;20.10;99.90
24254;DHT22;12381;51.152;4.172;2022-09-13T05:06:11;20.10;99.90
24254;DHT22;12381;51.152;4.172;2022-09-13T05:08:42;20.10;99.90
24254;DHT22;12381;51.152;4.172;2022-09-13T05:11:08;20.10;99.90
24254;DHT22;12381;51.152;4.172;2022-09-13T05:13:34;20.10;99.90
24254;DHT22;12381;51.152;4.172;2022-09-13T05:16:03;20.10;99.90
24254;DHT22;12381;51.152;4.172;2022-09-13T05:18:31;20.10;99.90
24254;DHT22;12381;51.152;4.172;2022-09-13T05:20:58;20.10;99.90
24254;DHT22;12381;51.152;4.172;2022-09-13T05:23:24;20.10;99.90
24254;DHT22;12381;51.152;4.172;2022-09-13T05:25:57;20.10;99.90
24254;DHT22;12381;51.152;4.172;2022-09-13T05:28:24;20.10;99.90
24254;DHT22;12381;51.152;4.172;2022-09-13T05:30:59;20.10;99.90
24254;DHT22;12381;51.152;4.172;2022-09-13T05:33:27;20.10;99.90
24254;DHT22;12381;51.152;4.172;2022-09-13T05:35:52;20.10;99.90
24254;DHT22;12381;51.152;4.172;2022-09-13T05:38:18;20.10;99.90
24254;DHT22;12381;51.152;4.172;2022-09-13T05:40:44;20.10;99.90
24254;DHT22;12381;51.152;4.172;2022-09-13T05:43:10;20.10;99.90
24254;DHT22;12381;51.152;4.172;2022-09-13T05:45:36;20.10;99.90
24254;DHT22;12381;51.152;4.172;2022-09-13T05:48:02;20.20;99.90
24254;DHT22;12381;51.152;4.172;2022-09-13T05:50:31;20.20;99.90
24254;DHT22;12381;51.152;4.172;2022-09-13T05:52:56;20.20;99.90
24254;DHT22;12381;51.152;4.172;2022-09-13T05:55:22;20.10;99.90
24254;DHT22;12381;51.152;4.172;2022-09-13T05:57:49;20.20;99.90
24254;DHT22;12381;51.152;4.172;2022-09-13T06:00:15;20.20;99.90
24254;DHT22;12381;51.152;4.172;2022-09-13T06:02:41;20.30;99.90
24254;DHT22;12381;51.152;4.172;2022-09-13T06:05:08;20.30;99.90
24254;DHT22;12381;51.152;4.172;2022-09-13T06:07:35;20.30;99.90
24254;DHT22;12381;51.152;4.172;2022-09-13T06:10:01;20.30;99.90
24254;DHT22;12381;51.152;4.172;2022-09-13T06:12:29;20.30;99.90
24254;DHT22;12381;51.152;4.172;2022-09-13T06:14:54;20.30;99.90
24254;DHT22;12381;51.152;4.172;2022-09-13T06:17:20;20.30;99.90
24254;DHT22;12381;51.152;4.172;2022-09-13T06:19:46;20.30;99.90
24254;DHT22;12381;51.152;4.172;2022-09-13T06:22:11;20.30;99.90
24254;DHT22;12381;51.152;4.172;2022-09-13T06:24:37;20.30;99.90
24254;DHT22;12381;51.152;4.172;2022-09-13T06:27:03;20.30;99.90
24254;DHT22;12381;51.152;4.172;2022-09-13T06:29:29;20.30;99.90
24254;DHT22;12381;51.152;4.172;2022-09-13T06:31:54;20.30;99.90
24254;DHT22;12381;51.152;4.172;2022-09-13T06:34:20;20.30;99.90
24254;DHT22;12381;51.152;4.172;2022-09-13T06:36:45;20.40;99.90
24254;DHT22;12381;51.152;4.172;2022-09-13T06:39:11;20.40;99.90
24254;DHT22;12381;51.152;4.172;2022-09-13T06:41:37;20.40;99.90
24254;DHT22;12381;51.152;4.172;2022-09-13T06:44:03;20.40;99.90
24254;DHT22;12381;51.152;4.172;2022-09-13T06:46:31;20.50;99.90
24254;DHT22;12381;51.152;4.172;2022-09-13T06:48:59;20.50;99.90
24254;DHT22;12381;51.152;4.172;2022-09-13T06:51:25;20.50;99.90
24254;DHT22;12381;51.152;4.172;2022-09-13T06:53:52;20.50;99.90
24254;DHT22;12381;51.152;4.172;2022-09-13T06:56:27;20.60;99.90
24254;DHT22;12381;51.152;4.172;2022-09-13T06:58:57;20.60;99.90
24254;DHT22;12381;51.152;4.172;2022-09-13T07:01:34;20.60;99.90
24254;DHT22;12381;51.152;4.172;2022-09-13T07:04:06;20.60;99.90
24254;DHT22;12381;51.152;4.172;2022-09-13T07:06:35;20.70;99.90
24254;DHT22;12381;51.152;4.172;2022-09-13T07:09:04;20.70;99.90
24254;DHT22;12381;51.152;4.172;2022-09-13T07:11:36;20.70;99.90
24254;DHT22;12381;51.152;4.172;2022-09-13T07:14:03;20.80;99.90
24254;DHT22;12381;51.152;4.172;2022-09-13T07:16:32;20.80;99.90
24254;DHT22;12381;51.152;4.172;2022-09-13T07:19:00;20.90;99.90
24254;DHT22;12381;51.152;4.172;2022-09-13T07:21:27;20.90;99.90
24254;DHT22;12381;51.152;4.172;2022-09-13T07:23:54;20.90;99.90
24254;DHT22;12381;51.152;4.172;2022-09-13T07:26:20;20.90;99.90
24254;DHT22;12381;51.152;4.172;2022-09-13T07:28:50;21.00;99.90
24254;DHT22;12381;51.152;4.172;2022-09-13T07:31:30;21.00;99.90
24254;DHT22;12381;51.152;4.172;2022-09-13T07:33:58;21.10;99.90
24254;DHT22;12381;51.152;4.172;2022-09-13T07:36:25;21.10;99.90
24254;DHT22;12381;51.152;4.172;2022-09-13T07:38:54;21.20;99.90
24254;DHT22;12381;51.152;4.172;2022-09-13T07:41:22;21.20;99.90
24254;DHT22;12381;51.152;4.172;2022-09-13T07:43:48;21.20;99.90
24254;DHT22;12381;51.152;4.172;2022-09-13T07:46:17;21.30;99.90
24254;DHT22;12381;51.152;4.172;2022-09-13T07:48:44;21.30;99.90
24254;DHT22;12381;51.152;4.172;2022-09-13T07:51:12;21.40;99.90
24254;DHT22;12381;51.152;4.172;2022-09-13T07:53:42;21.40;99.90
24254;DHT22;12381;51.152;4.172;2022-09-13T07:56:10;21.40;99.90
24254;DHT22;12381;51.152;4.172;2022-09-13T07:58:37;21.50;99.90
24254;DHT22;12381;51.152;4.172;2022-09-13T08:03:36;21.60;99.90
24254;DHT22;12381;51.152;4.172;2022-09-13T08:06:03;21.60;99.90
24254;DHT22;12381;51.152;4.172;2022-09-13T08:08:30;21.70;99.90
24254;DHT22;12381;51.152;4.172;2022-09-13T08:11:00;21.70;99.90
24254;DHT22;12381;51.152;4.172;2022-09-13T08:13:26;21.80;99.90
24254;DHT22;12381;51.152;4.172;2022-09-13T08:15:53;21.90;99.90
24254;DHT22;12381;51.152;4.172;2022-09-13T08:18:19;21.90;99.90
24254;DHT22;12381;51.152;4.172;2022-09-13T08:20:45;22.00;99.90
24254;DHT22;12381;51.152;4.172;2022-09-13T08:23:11;22.00;99.90
24254;DHT22;12381;51.152;4.172;2022-09-13T08:25:38;22.10;99.90
24254;DHT22;12381;51.152;4.172;2022-09-13T08:28:15;22.10;99.90
24254;DHT22;12381;51.152;4.172;2022-09-13T08:30:41;22.20;99.90
24254;DHT22;12381;51.152;4.172;2022-09-13T08:33:08;22.20;99.90
24254;DHT22;12381;51.152;4.172;2022-09-13T08:35:35;22.20;99.90
24254;DHT22;12381;51.152;4.172;2022-09-13T08:38:01;22.30;99.90
24254;DHT22;12381;51.152;4.172;2022-09-13T08:40:30;22.30;99.90
24254;DHT22;12381;51.152;4.172;2022-09-13T08:45:30;22.50;99.90
24254;DHT22;12381;51.152;4.172;2022-09-13T08:48:02;22.60;99.90
24254;DHT22;12381;51.152;4.172;2022-09-13T08:50:37;22.60;99.90
24254;DHT22;12381;51.152;4.172;2022-09-13T08:53:21;22.70;99.90
24254;DHT22;12381;51.152;4.172;2022-09-13T08:56:10;22.70;99.90
24254;DHT22;12381;51.152;4.172;2022-09-13T09:06:41;22.90;99.90
24254;DHT22;12381;51.152;4.172;2022-09-13T09:09:18;23.00;99.90
24254;DHT22;12381;51.152;4.172;2022-09-13T09:14:42;23.00;99.90
24254;DHT22;12381;51.152;4.172;2022-09-13T09:17:19;23.00;99.90
24254;DHT22;12381;51.152;4.172;2022-09-13T09:20:26;23.00;99.90
24254;DHT22;12381;51.152;4.172;2022-09-13T09:22:53;23.00;99.90
24254;DHT22;12381;51.152;4.172;2022-09-13T09:25:24;23.00;99.90
24254;DHT22;12381;51.152;4.172;2022-09-13T09:27:52;23.20;99.90
24254;DHT22;12381;51.152;4.172;2022-09-13T09:30:18;23.30;99.90
24254;DHT22;12381;51.152;4.172;2022-09-13T09:38:30;23.50;99.90
24254;DHT22;12381;51.152;4.172;2022-09-13T09:41:00;23.70;99.90
24254;DHT22;12381;51.152;4.172;2022-09-13T09:43:43;23.60;99.90
24254;DHT22;12381;51.152;4.172;2022-09-13T09:46:11;23.70;99.90
24254;DHT22;12381;51.152;4.172;2022-09-13T09:48:53;23.70;99.90
24254;DHT22;12381;51.152;4.172;2022-09-13T09:51:19;23.80;99.90
24254;DHT22;12381;51.152;4.172;2022-09-13T09:53:49;23.90;99.90
24254;DHT22;12381;51.152;4.172;2022-09-13T09:56:50;23.90;99.90
24254;DHT22;12381;51.152;4.172;2022-09-13T09:59:26;24.00;99.90
24254;DHT22;12381;51.152;4.172;2022-09-13T10:01:57;24.10;99.90
24254;DHT22;12381;51.152;4.172;2022-09-13T10:04:24;24.20;99.90
24254;DHT22;12381;51.152;4.172;2022-09-13T10:07:08;24.20;99.90
24254;DHT22;12381;51.152;4.172;2022-09-13T10:09:35;24.40;99.90
24254;DHT22;12381;51.152;4.172;2022-09-13T10:12:02;24.50;99.90
24254;DHT22;12381;51.152;4.172;2022-09-13T10:20:24;25.00;99.90
24254;DHT22;12381;51.152;4.172;2022-09-13T10:22:43;25.10;99.90
24254;DHT22;12381;51.152;4.172;2022-09-13T10:25:22;25.20;99.90
24254;DHT22;12381;51.152;4.172;2022-09-13T10:27:50;25.30;99.90
24254;DHT22;12381;51.152;4.172;2022-09-13T10:30:37;25.30;99.90
24254;DHT22;12381;51.152;4.172;2022-09-13T10:33:07;25.30;99.90
24254;DHT22;12381;51.152;4.172;2022-09-13T10:35:47;25.20;99.90
24254;DHT22;12381;51.152;4.172;2022-09-13T10:38:40;25.10;99.90
24254;DHT22;12381;51.152;4.172;2022-09-13T10:41:22;25.10;99.90
24254;DHT22;12381;51.152;4.172;2022-09-13T10:43:56;25.20;99.90
24254;DHT22;12381;51.152;4.172;2022-09-13T10:46:22;25.20;99.90
24254;DHT22;12381;51.152;4.172;2022-09-13T10:48:48;25.30;99.90
24254;DHT22;12381;51.152;4.172;2022-09-13T10:56:36;25.80;99.90
24254;DHT22;12381;51.152;4.172;2022-09-13T11:02:23;25.50;99.90
24254;DHT22;12381;51.152;4.172;2022-09-13T11:11:00;25.20;99.90
24254;DHT22;12381;51.152;4.172;2022-09-13T11:30:24;25.30;99.90
24254;DHT22;12381;51.152;4.172;2022-09-13T11:41:42;26.30;99.90
24254;DHT22;12381;51.152;4.172;2022-09-13T11:58:05;26.60;99.90
24254;DHT22;12381;51.152;4.172;2022-09-13T12:01:07;26.60;99.90
24254;DHT22;12381;51.152;4.172;2022-09-13T12:03:46;26.80;99.90
24254;DHT22;12381;51.152;4.172;2022-09-13T12:09:14;27.10;99.90
24254;DHT22;12381;51.152;4.172;2022-09-13T12:11:46;27.20;99.90
24254;DHT22;12381;51.152;4.172;2022-09-13T12:14:16;27.30;99.90
24254;DHT22;12381;51.152;4.172;2022-09-13T12:16:44;27.20;99.90
24254;DHT22;12381;51.152;4.172;2022-09-13T12:19:22;26.90;99.90
24254;DHT22;12381;51.152;4.172;2022-09-13T12:21:51;26.80;99.90
24254;DHT22;12381;51.152;4.172;2022-09-13T12:29:55;26.20;99.90
24254;DHT22;12381;51.152;4.172;2022-09-13T12:32:22;26.10;99.90
24254;DHT22;12381;51.152;4.172;2022-09-13T12:38:20;25.80;99.90
24254;DHT22;12381;51.152;4.172;2022-09-13T12:49:24;25.40;99.90
24254;DHT22;12381;51.152;4.172;2022-09-13T13:05:31;25.00;99.90
24254;DHT22;12381;51.152;4.172;2022-09-13T13:08:23;25.00;99.90
24254;DHT22;12381;51.152;4.172;2022-09-13T13:11:06;24.90;99.90
24254;DHT22;12381;51.152;4.172;2022-09-13T13:13:36;24.90;99.90
24254;DHT22;12381;51.152;4.172;2022-09-13T13:18:56;24.80;99.90
24254;DHT22;12381;51.152;4.172;2022-09-13T13:26:54;24.60;99.90
24254;DHT22;12381;51.152;4.172;2022-09-13T13:29:21;24.60;99.90
24254;DHT22;12381;51.152;4.172;2022-09-13T13:37:25;24.40;99.90
24254;DHT22;12381;51.152;4.172;2022-09-13T13:40:31;24.40;99.90
24254;DHT22;12381;51.152;4.172;2022-09-13T13:43:29;24.40;99.90
24254;DHT22;12381;51.152;4.172;2022-09-13T13:48:39;24.30;99.90
24254;DHT22;12381;51.152;4.172;2022-09-13T13:53:46;24.30;99.90
24254;DHT22;12381;51.152;4.172;2022-09-13T13:56:25;24.30;99.90
24254;DHT22;12381;51.152;4.172;2022-09-13T13:59:23;24.30;99.90
24254;DHT22;12381;51.152;4.172;2022-09-13T14:01:55;24.30;99.90
24254;DHT22;12381;51.152;4.172;2022-09-13T14:07:02;24.30;99.90
24254;DHT22;12381;51.152;4.172;2022-09-13T14:18:03;24.10;99.90
24254;DHT22;12381;51.152;4.172;2022-09-13T14:20:34;24.10;99.90
24254;DHT22;12381;51.152;4.172;2022-09-13T14:23:16;24.10;99.90
24254;DHT22;12381;51.152;4.172;2022-09-13T14:25:43;24.10;99.90
24254;DHT22;12381;51.152;4.172;2022-09-13T14:28:15;24.10;99.90
24254;DHT22;12381;51.152;4.172;2022-09-13T14:30:44;24.10;99.90
24254;DHT22;12381;51.152;4.172;2022-09-13T14:33:28;24.10;99.90
24254;DHT22;12381;51.152;4.172;2022-09-13T14:36:20;24.10;99.90
24254;DHT22;12381;51.152;4.172;2022-09-13T14:38:57;23.90;99.90
24254;DHT22;12381;51.152;4.172;2022-09-13T14:41:35;23.90;99.90
24254;DHT22;12381;51.152;4.172;2022-09-13T14:44:20;23.90;99.90
24254;DHT22;12381;51.152;4.172;2022-09-13T14:46:53;23.90;99.90
24254;DHT22;12381;51.152;4.172;2022-09-13T14:49:25;23.90;99.90
24254;DHT22;12381;51.152;4.172;2022-09-13T14:52:02;23.90;99.90
24254;DHT22;12381;51.152;4.172;2022-09-13T14:56:57;23.90;99.90
24254;DHT22;12381;51.152;4.172;2022-09-13T15:01:57;23.80;99.90
24254;DHT22;12381;51.152;4.172;2022-09-13T15:04:23;23.80;99.90
24254;DHT22;12381;51.152;4.172;2022-09-13T15:07:07;23.80;99.90
24254;DHT22;12381;51.152;4.172;2022-09-13T15:09:32;23.80;99.90
24254;DHT22;12381;51.152;4.172;2022-09-13T15:11:59;23.80;99.90
24254;DHT22;12381;51.152;4.172;2022-09-13T15:14:33;23.70;99.90
24254;DHT22;12381;51.152;4.172;2022-09-13T15:17:07;23.70;99.90
24254;DHT22;12381;51.152;4.172;2022-09-13T15:19:37;23.70;99.90
24254;DHT22;12381;51.152;4.172;2022-09-13T15:22:24;23.70;99.90
24254;DHT22;12381;51.152;4.172;2022-09-13T15:24:56;23.70;99.90
24254;DHT22;12381;51.152;4.172;2022-09-13T15:27:31;23.60;99.90
24254;DHT22;12381;51.152;4.172;2022-09-13T15:30:24;23.60;99.90
24254;DHT22;12381;51.152;4.172;2022-09-13T15:35:40;23.50;99.90
24254;DHT22;12381;51.152;4.172;2022-09-13T15:38:33;23.50;99.90
24254;DHT22;12381;51.152;4.172;2022-09-13T15:41:17;23.50;99.90
24254;DHT22;12381;51.152;4.172;2022-09-13T15:43:43;23.50;99.90
24254;DHT22;12381;51.152;4.172;2022-09-13T15:46:17;23.50;99.90
24254;DHT22;12381;51.152;4.172;2022-09-13T15:48:55;23.50;99.90
24254;DHT22;12381;51.152;4.172;2022-09-13T15:51:22;23.50;99.90
24254;DHT22;12381;51.152;4.172;2022-09-13T15:53:48;23.50;99.90
24254;DHT22;12381;51.152;4.172;2022-09-13T15:59:15;23.50;99.90
24254;DHT22;12381;51.152;4.172;2022-09-13T16:01:42;23.50;99.90
24254;DHT22;12381;51.152;4.172;2022-09-13T16:04:08;23.50;99.90
24254;DHT22;12381;51.152;4.172;2022-09-13T16:06:34;23.50;99.90
24254;DHT22;12381;51.152;4.172;2022-09-13T16:09:00;23.50;99.90
24254;DHT22;12381;51.152;4.172;2022-09-13T16:11:27;23.50;99.90
24254;DHT22;12381;51.152;4.172;2022-09-13T16:13:53;23.40;99.90
24254;DHT22;12381;51.152;4.172;2022-09-13T16:16:18;23.40;99.90
24254;DHT22;12381;51.152;4.172;2022-09-13T16:18:44;23.40;99.90
24254;DHT22;12381;51.152;4.172;2022-09-13T16:21:10;23.40;99.90
24254;DHT22;12381;51.152;4.172;2022-09-13T16:23:35;23.50;99.90
24254;DHT22;12381;51.152;4.172;2022-09-13T16:26:03;23.40;99.90
24254;DHT22;12381;51.152;4.172;2022-09-13T16:28:29;23.40;99.90
24254;DHT22;12381;51.152;4.172;2022-09-13T16:30:55;23.30;99.90
24254;DHT22;12381;51.152;4.172;2022-09-13T16:33:21;23.30;99.90
24254;DHT22;12381;51.152;4.172;2022-09-13T16:35:47;23.20;99.90
24254;DHT22;12381;51.152;4.172;2022-09-13T16:38:12;23.30;99.90
24254;DHT22;12381;51.152;4.172;2022-09-13T16:40:39;23.20;99.90
24254;DHT22;12381;51.152;4.172;2022-09-13T16:43:06;23.20;99.90
24254;DHT22;12381;51.152;4.172;2022-09-13T16:45:31;23.20;99.90
24254;DHT22;12381;51.152;4.172;2022-09-13T16:47:57;23.10;99.90
24254;DHT22;12381;51.152;4.172;2022-09-13T16:50:22;23.00;99.90
24254;DHT22;12381;51.152;4.172;2022-09-13T16:52:48;22.90;99.90
24254;DHT22;12381;51.152;4.172;2022-09-13T16:55:14;22.90;99.90
24254;DHT22;12381;51.152;4.172;2022-09-13T16:57:40;22.90;99.90
24254;DHT22;12381;51.152;4.172;2022-09-13T17:00:08;22.80;99.90
24254;DHT22;12381;51.152;4.172;2022-09-13T17:02:36;22.80;99.90
24254;DHT22;12381;51.152;4.172;2022-09-13T17:05:01;22.60;99.90
24254;DHT22;12381;51.152;4.172;2022-09-13T17:07:28;22.70;99.90
24254;DHT22;12381;51.152;4.172;2022-09-13T17:09:53;22.70;99.90
24254;DHT22;12381;51.152;4.172;2022-09-13T17:12:19;22.60;99.90
24254;DHT22;12381;51.152;4.172;2022-09-13T17:14:45;22.60;99.90
24254;DHT22;12381;51.152;4.172;2022-09-13T17:17:15;22.60;99.90
24254;DHT22;12381;51.152;4.172;2022-09-13T17:19:42;22.50;99.90
24254;DHT22;12381;51.152;4.172;2022-09-13T17:22:10;22.50;99.90
24254;DHT22;12381;51.152;4.172;2022-09-13T17:24:36;22.40;99.90
24254;DHT22;12381;51.152;4.172;2022-09-13T17:27:03;22.40;99.90
24254;DHT22;12381;51.152;4.172;2022-09-13T17:29:31;22.40;99.90
24254;DHT22;12381;51.152;4.172;2022-09-13T17:31:58;22.30;99.90
24254;DHT22;12381;51.152;4.172;2022-09-13T17:34:24;22.40;99.90
24254;DHT22;12381;51.152;4.172;2022-09-13T17:36:50;22.40;99.90
24254;DHT22;12381;51.152;4.172;2022-09-13T17:39:17;22.30;99.90
24254;DHT22;12381;51.152;4.172;2022-09-13T17:41:42;22.30;99.90
24254;DHT22;12381;51.152;4.172;2022-09-13T17:44:08;22.30;99.90
24254;DHT22;12381;51.152;4.172;2022-09-13T17:46:36;22.30;99.90
24254;DHT22;12381;51.152;4.172;2022-09-13T17:49:03;22.30;99.90
24254;DHT22;12381;51.152;4.172;2022-09-13T17:51:30;22.30;99.90
24254;DHT22;12381;51.152;4.172;2022-09-13T17:54:01;22.20;99.90
24254;DHT22;12381;51.152;4.172;2022-09-13T17:56:33;22.20;99.90
24254;DHT22;12381;51.152;4.172;2022-09-13T18:01:37;22.10;99.90
24254;DHT22;12381;51.152;4.172;2022-09-13T18:04:03;22.10;99.90
24254;DHT22;12381;51.152;4.172;2022-09-13T18:06:29;22.10;99.90
24254;DHT22;12381;51.152;4.172;2022-09-13T18:08:54;22.10;99.90
24254;DHT22;12381;51.152;4.172;2022-09-13T18:11:20;22.10;99.90
24254;DHT22;12381;51.152;4.172;2022-09-13T18:13:47;22.10;99.90
24254;DHT22;12381;51.152;4.172;2022-09-13T18:16:20;22.10;99.90
24254;DHT22;12381;51.152;4.172;2022-09-13T18:18:46;22.00;99.90
24254;DHT22;12381;51.152;4.172;2022-09-13T18:21:13;21.90;99.90
24254;DHT22;12381;51.152;4.172;2022-09-13T18:23:42;21.90;99.90
24254;DHT22;12381;51.152;4.172;2022-09-13T18:26:11;21.90;99.90
24254;DHT22;12381;51.152;4.172;2022-09-13T18:28:37;21.80;99.90
24254;DHT22;12381;51.152;4.172;2022-09-13T18:31:05;21.80;99.90
24254;DHT22;12381;51.152;4.172;2022-09-13T18:33:32;21.80;99.90
24254;DHT22;12381;51.152;4.172;2022-09-13T18:36:12;21.80;99.90
24254;DHT22;12381;51.152;4.172;2022-09-13T18:38:43;21.80;99.90
24254;DHT22;12381;51.152;4.172;2022-09-13T18:43:40;21.70;99.90
24254;DHT22;12381;51.152;4.172;2022-09-13T18:46:11;21.70;99.90
24254;DHT22;12381;51.152;4.172;2022-09-13T18:48:39;21.70;99.90
24254;DHT22;12381;51.152;4.172;2022-09-13T18:51:08;21.70;99.90
24254;DHT22;12381;51.152;4.172;2022-09-13T18:53:34;21.80;99.90
24254;DHT22;12381;51.152;4.172;2022-09-13T18:56:06;21.70;99.90
24254;DHT22;12381;51.152;4.172;2022-09-13T18:58:33;21.70;99.90
24254;DHT22;12381;51.152;4.172;2022-09-13T19:01:08;21.70;99.90
24254;DHT22;12381;51.152;4.172;2022-09-13T19:03:35;21.60;99.90
24254;DHT22;12381;51.152;4.172;2022-09-13T19:06:33;21.60;99.90
24254;DHT22;12381;51.152;4.172;2022-09-13T19:09:00;21.60;99.90
24254;DHT22;12381;51.152;4.172;2022-09-13T19:11:32;21.60;99.90
24254;DHT22;12381;51.152;4.172;2022-09-13T19:13:57;21.50;99.90
24254;DHT22;12381;51.152;4.172;2022-09-13T19:16:23;21.50;99.90
24254;DHT22;12381;51.152;4.172;2022-09-13T19:18:50;21.50;99.90
24254;DHT22;12381;51.152;4.172;2022-09-13T19:21:18;21.40;99.90
24254;DHT22;12381;51.152;4.172;2022-09-13T19:23:46;21.50;99.90
24254;DHT22;12381;51.152;4.172;2022-09-13T19:26:15;21.50;99.90
24254;DHT22;12381;51.152;4.172;2022-09-13T19:28:49;21.40;99.90
24254;DHT22;12381;51.152;4.172;2022-09-13T19:31:17;21.40;99.90
24254;DHT22;12381;51.152;4.172;2022-09-13T19:33:42;21.40;99.90
24254;DHT22;12381;51.152;4.172;2022-09-13T19:36:13;21.40;99.90
24254;DHT22;12381;51.152;4.172;2022-09-13T19:38:40;21.30;99.90
24254;DHT22;12381;51.152;4.172;2022-09-13T19:41:09;21.30;99.90
24254;DHT22;12381;51.152;4.172;2022-09-13T19:43:36;21.30;99.90